Time;durP1;ratioP1;P1;durP2;ratioP2;P2;SDS_P1;SDS_P2;PMS_P1;PMS_P2;Temp;Humidity;BMP_temperature;BMP_pressure;BME280_temperature;BME280_humidity;BME280_pressure;Samples;Min_cycle;Max_cycle;Signal;HPM_P1;HPM_P2
2023/01/26 00:02:09;;;;;;;6.45;3.35;;;;;;;;;;5072938;28;20037;-43
2023/01/26 00:04:35;;;;;;;4.65;3.05;;;;;;;;;;5068139;28;20053;-44
2023/01/26 00:07:01;;;;;;;5.07;3.22;;;;;;;;;;5062486;28;20033;-44
2023/01/26 00:09:27;;;;;;;5.38;3.50;;;;;;;;;;5065042;28;20035;-43
2023/01/26 00:11:53;;;;;;;5.30;4.32;;;;;;;;;;5075742;28;20024;-46
2023/01/26 00:14:19;;;;;;;5.25;3.38;;;;;;;;;;5067618;28;20025;-48
2023/01/26 00:16:45;;;;;;;5.10;3.53;;;;;;;;;;5071589;28;20056;-44
2023/01/26 00:19:11;;;;;;;4.63;3.58;;;;;;;;;;5064065;28;20024;-44
2023/01/26 00:21:37;;;;;;;5.00;3.63;;;;;;;;;;5066449;28;20098;-44
2023/01/26 00:24:03;;;;;;;7.63;3.65;;;;;;;;;;5066858;28;20021;-43
2023/01/26 00:26:30;;;;;;;4.93;3.05;;;;;;;;;;5065429;28;20028;-44
2023/01/26 00:28:55;;;;;;;5.10;3.47;;;;;;;;;;5068596;28;20036;-49
2023/01/26 00:31:23;;;;;;;7.28;3.13;;;;;;;;;;5071024;28;20031;-45
2023/01/26 00:33:50;;;;;;;7.40;3.83;;;;;;;;;;5068894;28;20029;-45
2023/01/26 00:36:16;;;;;;;6.13;3.60;;;;;;;;;;5065632;28;20021;-48
2023/01/26 00:38:42;;;;;;;5.53;3.58;;;;;;;;;;5067153;28;20025;-43
2023/01/26 00:41:08;;;;;;;5.20;3.42;;;;;;;;;;5071432;28;20024;-44
2023/01/26 00:43:34;;;;;;;4.38;3.20;;;;;;;;;;5064388;28;20021;-44
2023/01/26 00:46:00;;;;;;;4.43;3.60;;;;;;;;;;5066972;28;20476;-44
2023/01/26 00:48:26;;;;;;;5.35;3.25;;;;;;;;;;5065804;28;20021;-43
2023/01/26 00:50:52;;;;;;;5.40;3.30;;;;;;;;;;5065904;28;20027;-44
2023/01/26 00:53:19;;;;;;;4.53;3.33;;;;;;;;;;5063775;28;20708;-44
2023/01/26 00:55:45;;;;;;;6.05;3.67;;;;;;;;;;5068072;28;20012;-43
2023/01/26 00:58:10;;;;;;;4.93;3.33;;;;;;;;;;5066643;28;20036;-44
2023/01/26 01:00:37;;;;;;;5.43;3.20;;;;;;;;;;5064267;28;20423;-43
2023/01/26 01:03:04;;;;;;;5.45;3.30;;;;;;;;;;5065372;28;20111;-44
2023/01/26 01:05:31;;;;;;;5.63;3.70;;;;;;;;;;5068873;28;20462;-43
2023/01/26 01:07:57;;;;;;;5.85;4.18;;;;;;;;;;5069276;28;20028;-44
2023/01/26 01:10:25;;;;;;;5.13;3.53;;;;;;;;;;5068700;28;20389;-43
2023/01/26 01:12:51;;;;;;;5.95;3.20;;;;;;;;;;5069532;28;20048;-43
2023/01/26 01:15:17;;;;;;;4.78;3.20;;;;;;;;;;5069297;28;20059;-43
2023/01/26 01:17:43;;;;;;;5.60;3.80;;;;;;;;;;5069153;28;20481;-43
2023/01/26 01:20:10;;;;;;;5.38;3.58;;;;;;;;;;5070261;28;20081;-44
2023/01/26 01:22:36;;;;;;;6.10;3.35;;;;;;;;;;5069839;28;20456;-43
2023/01/26 01:25:02;;;;;;;4.65;3.53;;;;;;;;;;5067253;28;20028;-43
2023/01/26 01:27:28;;;;;;;4.95;3.38;;;;;;;;;;5068711;28;20035;-44
2023/01/26 01:29:54;;;;;;;5.45;3.25;;;;;;;;;;5067040;28;20730;-43
2023/01/26 01:32:20;;;;;;;4.15;3.30;;;;;;;;;;5065620;28;20041;-43
2023/01/26 01:34:47;;;;;;;5.22;3.35;;;;;;;;;;5063651;28;20017;-43
2023/01/26 01:37:13;;;;;;;5.47;3.42;;;;;;;;;;5068247;28;20021;-43
2023/01/26 01:39:39;;;;;;;5.60;3.30;;;;;;;;;;5068554;28;20036;-43
2023/01/26 01:42:05;;;;;;;5.35;3.53;;;;;;;;;;5065340;28;20036;-43
2023/01/26 01:44:31;;;;;;;5.10;3.30;;;;;;;;;;5066951;28;20086;-43
2023/01/26 01:47:09;;;;;;;4.80;3.40;;;;;;;;;;5065658;28;20123;-43
2023/01/26 01:49:42;;;;;;;4.60;3.10;;;;;;;;;;5065988;28;20032;-43
2023/01/26 01:52:10;;;;;;;5.30;3.88;;;;;;;;;;5064695;28;20060;-44
2023/01/26 01:54:38;;;;;;;6.25;4.07;;;;;;;;;;5065315;28;20025;-43
2023/01/26 01:57:14;;;;;;;5.78;3.85;;;;;;;;;;5067738;28;20029;-43
2023/01/26 01:59:41;;;;;;;6.82;3.80;;;;;;;;;;5062483;28;20056;-43
2023/01/26 02:02:07;;;;;;;5.13;3.30;;;;;;;;;;5066273;28;20100;-44
2023/01/26 02:04:33;;;;;;;6.97;4.15;;;;;;;;;;5066404;28;20174;-43
2023/01/26 02:07:00;;;;;;;5.65;3.65;;;;;;;;;;5065906;28;20512;-45
2023/01/26 02:12:14;;;;;;;4.78;3.15;;;;;;;;;;5064861;28;20162;-43
2023/01/26 02:14:40;;;;;;;4.60;3.17;;;;;;;;;;5067339;28;20115;-43
2023/01/26 02:17:06;;;;;;;5.72;4.35;;;;;;;;;;5068562;28;20028;-43
2023/01/26 02:19:32;;;;;;;4.63;3.38;;;;;;;;;;5066312;28;20630;-44
2023/01/26 02:22:02;;;;;;;5.90;3.80;;;;;;;;;;5066951;28;20077;-45
2023/01/26 02:24:32;;;;;;;5.95;3.75;;;;;;;;;;5066039;28;20032;-43
2023/01/26 02:26:59;;;;;;;5.25;3.38;;;;;;;;;;5065984;28;20025;-44
2023/01/26 02:29:25;;;;;;;4.75;3.40;;;;;;;;;;5066263;28;20492;-43
2023/01/26 02:31:52;;;;;;;5.13;3.35;;;;;;;;;;5066571;28;20950;-44
2023/01/26 02:34:18;;;;;;;4.35;3.00;;;;;;;;;;5066271;28;20032;-45
2023/01/26 02:36:44;;;;;;;6.10;4.03;;;;;;;;;;5065602;28;20403;-43
2023/01/26 02:39:19;;;;;;;5.18;3.33;;;;;;;;;;5068363;28;20035;-43
2023/01/26 02:44:31;;;;;;;5.85;3.90;;;;;;;;;;5064683;28;20513;-43
2023/01/26 02:46:57;;;;;;;6.47;4.07;;;;;;;;;;5067250;28;20024;-44
2023/01/26 02:52:08;;;;;;;6.38;3.78;;;;;;;;;;5064541;28;20065;-43
2023/01/26 02:57:19;;;;;;;5.03;3.65;;;;;;;;;;5065820;28;20060;-44
2023/01/26 02:59:45;;;;;;;5.47;3.67;;;;;;;;;;5066181;28;20469;-45
2023/01/26 03:02:11;;;;;;;6.13;3.38;;;;;;;;;;5070782;28;20052;-44
2023/01/26 03:04:37;;;;;;;3.72;2.83;;;;;;;;;;5064335;28;20045;-45
2023/01/26 03:07:03;;;;;;;4.65;3.47;;;;;;;;;;5058795;28;20108;-44
2023/01/26 03:09:29;;;;;;;5.53;3.42;;;;;;;;;;5057788;28;20029;-44
2023/01/26 03:11:55;;;;;;;7.03;4.32;;;;;;;;;;5054796;28;20860;-44
2023/01/26 03:14:21;;;;;;;5.90;3.80;;;;;;;;;;5058437;28;20033;-45
2023/01/26 03:16:47;;;;;;;4.50;3.20;;;;;;;;;;5058554;28;20016;-46
2023/01/26 03:27:29;;;;;;;4.90;3.60;;;;;;;;;;5055512;28;20459;-46
2023/01/26 03:29:56;;;;;;;5.03;3.47;;;;;;;;;;5059692;28;20025;-46
2023/01/26 03:32:22;;;;;;;5.05;3.00;;;;;;;;;;5061039;28;20036;-44
2023/01/26 03:34:48;;;;;;;5.35;3.33;;;;;;;;;;5059416;28;20013;-44
2023/01/26 03:37:14;;;;;;;6.00;3.38;;;;;;;;;;5054972;28;20370;-47
2023/01/26 03:56:30;;;;;;;6.45;3.33;;;;;;;;;;5056717;28;20028;-44
2023/01/26 03:58:57;;;;;;;5.57;3.08;;;;;;;;;;5052595;28;20889;-43
2023/01/26 04:01:27;;;;;;;5.00;3.05;;;;;;;;;;5056661;28;20130;-44
2023/01/26 04:09:27;;;;;;;4.13;2.97;;;;;;;;;;5070282;28;20044;-44
2023/01/26 04:11:53;;;;;;;5.25;2.90;;;;;;;;;;5069725;28;20359;-44
2023/01/26 04:22:42;;;;;;;5.30;3.60;;;;;;;;;;5071716;28;20031;-44
2023/01/26 04:25:08;;;;;;;4.28;2.72;;;;;;;;;;5071321;28;20532;-46
2023/01/26 04:27:34;;;;;;;5.57;3.35;;;;;;;;;;5069175;28;20056;-44
2023/01/26 04:30:00;;;;;;;4.63;2.88;;;;;;;;;;5070941;28;20028;-44
2023/01/26 04:32:26;;;;;;;5.43;3.28;;;;;;;;;;5071905;28;20040;-44
2023/01/26 04:34:53;;;;;;;4.18;2.50;;;;;;;;;;5068065;28;20021;-44
2023/01/26 04:37:18;;;;;;;4.45;3.17;;;;;;;;;;5071977;28;20485;-43
2023/01/26 04:39:44;;;;;;;5.07;2.97;;;;;;;;;;5065906;28;20033;-44
2023/01/26 04:42:10;;;;;;;4.45;3.20;;;;;;;;;;5072469;28;20020;-44
2023/01/26 04:44:36;;;;;;;4.15;2.90;;;;;;;;;;5068599;28;20024;-44
2023/01/26 04:47:02;;;;;;;4.35;3.42;;;;;;;;;;5060781;28;20025;-44
2023/01/26 04:49:28;;;;;;;4.00;2.90;;;;;;;;;;5061546;28;20509;-44
2023/01/26 04:51:54;;;;;;;4.10;3.42;;;;;;;;;;5069392;28;20024;-45
2023/01/26 04:54:20;;;;;;;3.42;2.80;;;;;;;;;;5065180;28;20082;-44
2023/01/26 04:56:46;;;;;;;4.70;3.17;;;;;;;;;;5062303;28;20032;-44
2023/01/26 04:59:13;;;;;;;5.18;3.50;;;;;;;;;;5068381;28;20112;-43
2023/01/26 05:01:39;;;;;;;4.90;3.15;;;;;;;;;;5066469;28;20029;-45
2023/01/26 05:04:05;;;;;;;4.75;2.95;;;;;;;;;;5068074;28;20108;-44
2023/01/26 05:06:32;;;;;;;4.28;3.17;;;;;;;;;;5065825;28;20419;-44
2023/01/26 05:08:58;;;;;;;5.18;3.15;;;;;;;;;;5062960;28;20580;-43
2023/01/26 05:11:24;;;;;;;4.45;2.85;;;;;;;;;;5071095;28;20107;-43
2023/01/26 05:13:50;;;;;;;4.25;2.75;;;;;;;;;;5066652;28;20681;-44
2023/01/26 05:16:16;;;;;;;3.22;2.53;;;;;;;;;;5068964;28;20024;-44
2023/01/26 05:18:42;;;;;;;3.97;2.75;;;;;;;;;;5070807;28;20021;-43
2023/01/26 05:21:08;;;;;;;3.92;2.90;;;;;;;;;;5071042;28;20032;-44
2023/01/26 05:23:34;;;;;;;4.97;3.00;;;;;;;;;;5070703;28;20031;-43
2023/01/26 05:26:00;;;;;;;3.22;2.50;;;;;;;;;;5068765;28;20020;-43
2023/01/26 05:28:27;;;;;;;5.03;2.83;;;;;;;;;;5070977;28;20135;-43
2023/01/26 05:30:53;;;;;;;4.80;2.83;;;;;;;;;;5069317;28;20028;-43
2023/01/26 05:33:20;;;;;;;4.25;2.72;;;;;;;;;;5071406;28;20067;-43
2023/01/26 05:35:48;;;;;;;4.65;3.15;;;;;;;;;;5063815;28;20025;-43
2023/01/26 05:38:14;;;;;;;4.47;3.03;;;;;;;;;;5061469;28;20461;-44
2023/01/26 05:40:40;;;;;;;3.92;2.30;;;;;;;;;;5061298;28;20024;-43
2023/01/26 05:43:07;;;;;;;3.80;2.67;;;;;;;;;;5062387;28;20027;-43
2023/01/26 05:45:33;;;;;;;5.45;2.92;;;;;;;;;;5064271;28;20124;-44
2023/01/26 05:47:59;;;;;;;4.63;2.95;;;;;;;;;;5066082;28;20519;-43
2023/01/26 05:50:25;;;;;;;3.83;2.72;;;;;;;;;;5069846;28;20032;-44
2023/01/26 05:52:51;;;;;;;3.22;2.25;;;;;;;;;;5069974;28;20848;-43
2023/01/26 05:55:17;;;;;;;3.97;2.83;;;;;;;;;;5068314;28;20078;-44
2023/01/26 05:57:43;;;;;;;4.45;2.83;;;;;;;;;;5064096;28;20028;-43
2023/01/26 06:00:10;;;;;;;5.78;2.63;;;;;;;;;;5069928;28;20110;-43
2023/01/26 06:02:36;;;;;;;4.57;2.97;;;;;;;;;;5063024;28;20466;-44
2023/01/26 06:05:02;;;;;;;3.78;2.30;;;;;;;;;;5069761;28;20066;-43
2023/01/26 06:07:27;;;;;;;5.53;3.30;;;;;;;;;;5061315;28;20082;-44
2023/01/26 06:09:53;;;;;;;3.38;2.30;;;;;;;;;;5068265;28;20056;-44
2023/01/26 06:12:20;;;;;;;3.35;2.40;;;;;;;;;;5069182;28;20378;-44
2023/01/26 06:14:46;;;;;;;5.25;2.55;;;;;;;;;;5068092;28;20020;-44
2023/01/26 06:17:13;;;;;;;3.65;2.72;;;;;;;;;;5065703;28;20432;-43
2023/01/26 06:19:39;;;;;;;3.33;2.47;;;;;;;;;;5060399;28;20098;-44
2023/01/26 06:22:12;;;;;;;4.40;2.80;;;;;;;;;;5070336;28;20020;-44
2023/01/26 06:24:38;;;;;;;4.82;2.72;;;;;;;;;;5066855;28;20036;-44
2023/01/26 06:27:06;;;;;;;4.03;2.60;;;;;;;;;;5068359;28;20374;-45
2023/01/26 06:29:33;;;;;;;4.65;3.05;;;;;;;;;;5069512;28;20035;-44
2023/01/26 06:31:59;;;;;;;3.70;2.25;;;;;;;;;;5069992;28;20035;-44
2023/01/26 06:34:25;;;;;;;5.05;2.20;;;;;;;;;;5078542;28;20036;-44
2023/01/26 06:36:51;;;;;;;3.75;2.70;;;;;;;;;;5068559;28;20907;-43
2023/01/26 06:39:17;;;;;;;4.35;2.25;;;;;;;;;;5064572;28;20031;-45
2023/01/26 06:41:43;;;;;;;4.07;2.58;;;;;;;;;;5063342;28;20033;-44
2023/01/26 06:44:09;;;;;;;4.63;2.20;;;;;;;;;;5067043;28;20029;-48
2023/01/26 06:46:36;;;;;;;4.07;2.80;;;;;;;;;;5068220;28;20500;-44
2023/01/26 06:49:02;;;;;;;7.22;2.70;;;;;;;;;;5070491;28;20028;-45
2023/01/26 06:51:46;;;;;;;4.70;2.70;;;;;;;;;;5073864;28;20054;-47
2023/01/26 06:54:13;;;;;;;4.05;2.70;;;;;;;;;;5073725;28;20033;-44
2023/01/26 06:56:39;;;;;;;4.07;2.22;;;;;;;;;;5067891;28;20056;-45
2023/01/26 06:59:05;;;;;;;3.08;2.20;;;;;;;;;;5070423;28;20099;-44
2023/01/26 07:01:36;;;;;;;3.53;2.30;;;;;;;;;;5073681;28;20036;-44
2023/01/26 07:04:02;;;;;;;4.60;2.35;;;;;;;;;;5063983;28;20389;-44
2023/01/26 07:06:28;;;;;;;12.45;3.00;;;;;;;;;;5072559;28;20039;-43
2023/01/26 07:08:54;;;;;;;3.60;2.17;;;;;;;;;;5066439;28;20084;-44
2023/01/26 07:11:20;;;;;;;7.10;2.15;;;;;;;;;;5073341;28;20032;-43
2023/01/26 07:13:47;;;;;;;4.43;2.58;;;;;;;;;;5058054;28;20029;-44
2023/01/26 07:16:14;;;;;;;2.85;1.90;;;;;;;;;;5073364;28;20035;-44
2023/01/26 07:18:40;;;;;;;6.68;2.60;;;;;;;;;;5070417;28;20124;-44
2023/01/26 07:21:07;;;;;;;3.50;2.10;;;;;;;;;;5069291;28;20016;-44
2023/01/26 07:23:33;;;;;;;4.55;2.40;;;;;;;;;;5073039;28;20054;-43
2023/01/26 07:25:59;;;;;;;5.97;2.55;;;;;;;;;;5061209;28;20025;-44
2023/01/26 07:28:26;;;;;;;4.75;2.25;;;;;;;;;;5070028;28;20024;-43
2023/01/26 07:30:52;;;;;;;6.07;2.72;;;;;;;;;;5061008;28;20028;-44
2023/01/26 07:33:18;;;;;;;5.70;2.50;;;;;;;;;;5069728;28;20060;-43
2023/01/26 07:35:44;;;;;;;2.78;2.15;;;;;;;;;;5068928;28;20040;-46
2023/01/26 07:38:11;;;;;;;3.67;2.17;;;;;;;;;;5067370;28;20047;-46
2023/01/26 07:40:37;;;;;;;6.60;2.80;;;;;;;;;;5059366;28;20474;-44
2023/01/26 07:43:03;;;;;;;3.88;2.20;;;;;;;;;;5073047;28;20027;-43
2023/01/26 07:45:29;;;;;;;4.55;1.98;;;;;;;;;;5065125;28;20075;-46
2023/01/26 07:47:55;;;;;;;4.57;2.13;;;;;;;;;;5064184;28;20031;-46
2023/01/26 07:50:21;;;;;;;4.35;2.53;;;;;;;;;;5059373;28;20079;-43
2023/01/26 07:52:47;;;;;;;8.35;2.50;;;;;;;;;;5063172;28;20048;-44
2023/01/26 07:55:13;;;;;;;4.45;2.10;;;;;;;;;;5063900;28;20493;-44
2023/01/26 07:57:40;;;;;;;4.55;2.15;;;;;;;;;;5069498;28;20020;-43
2023/01/26 08:00:06;;;;;;;4.03;2.13;;;;;;;;;;5066000;28;20081;-43
2023/01/26 08:02:32;;;;;;;7.88;2.58;;;;;;;;;;5075842;28;20024;-43
2023/01/26 08:04:59;;;;;;;5.72;2.88;;;;;;;;;;5069312;28;20052;-44
2023/01/26 08:07:25;;;;;;;8.05;2.70;;;;;;;;;;5073221;28;20027;-44
2023/01/26 08:09:51;;;;;;;5.05;2.50;;;;;;;;;;5071821;28;20039;-44
2023/01/26 08:12:17;;;;;;;4.20;2.25;;;;;;;;;;5073042;28;20028;-44
2023/01/26 08:14:43;;;;;;;5.82;2.92;;;;;;;;;;5069723;28;20029;-43
2023/01/26 08:17:09;;;;;;;3.38;2.00;;;;;;;;;;5071884;28;20035;-44
2023/01/26 08:19:35;;;;;;;16.10;2.35;;;;;;;;;;5076906;28;20462;-44
2023/01/26 08:22:01;;;;;;;4.88;2.50;;;;;;;;;;5074480;28;20031;-44
2023/01/26 08:24:27;;;;;;;4.55;2.33;;;;;;;;;;5070996;28;20063;-43
2023/01/26 08:26:53;;;;;;;2.60;2.03;;;;;;;;;;5072235;28;20649;-44
2023/01/26 08:29:19;;;;;;;3.08;2.22;;;;;;;;;;5067358;28;20029;-44
2023/01/26 08:31:45;;;;;;;4.40;2.00;;;;;;;;;;5064968;28;20029;-46
2023/01/26 08:34:11;;;;;;;4.70;2.38;;;;;;;;;;5065195;28;20024;-44
2023/01/26 08:36:39;;;;;;;2.67;1.77;;;;;;;;;;5058563;28;20043;-43
2023/01/26 08:39:05;;;;;;;3.50;1.92;;;;;;;;;;5065090;28;20028;-43
2023/01/26 08:41:32;;;;;;;3.65;2.30;;;;;;;;;;5072182;28;20027;-43
2023/01/26 08:43:58;;;;;;;3.90;1.90;;;;;;;;;;5071640;28;20024;-44
2023/01/26 08:46:24;;;;;;;2.85;2.30;;;;;;;;;;5072396;28;20017;-44
2023/01/26 08:48:50;;;;;;;5.03;2.20;;;;;;;;;;5071058;28;20461;-43
2023/01/26 08:51:16;;;;;;;4.85;1.90;;;;;;;;;;5070229;28;20036;-43
2023/01/26 08:53:43;;;;;;;4.97;2.10;;;;;;;;;;5070759;28;20040;-44
2023/01/26 08:56:10;;;;;;;3.15;2.22;;;;;;;;;;5076394;28;20035;-43
2023/01/26 08:58:36;;;;;;;6.55;1.90;;;;;;;;;;5071124;28;20047;-43
2023/01/26 09:01:06;;;;;;;3.88;1.80;;;;;;;;;;5068375;28;20021;-43
2023/01/26 09:03:32;;;;;;;2.70;1.73;;;;;;;;;;5065390;28;20032;-43
2023/01/26 09:05:59;;;;;;;4.80;2.42;;;;;;;;;;5070804;28;20063;-43
2023/01/26 09:08:25;;;;;;;3.85;2.08;;;;;;;;;;5072289;28;20416;-43
2023/01/26 09:10:51;;;;;;;3.63;2.17;;;;;;;;;;5070483;28;20020;-43
2023/01/26 09:13:17;;;;;;;3.92;2.00;;;;;;;;;;5070670;28;20020;-43
2023/01/26 09:15:43;;;;;;;2.80;1.63;;;;;;;;;;5070703;28;20056;-44
2023/01/26 09:18:10;;;;;;;2.75;1.90;;;;;;;;;;5072087;28;20048;-44
2023/01/26 09:20:40;;;;;;;2.58;1.80;;;;;;;;;;5070383;28;20469;-43
2023/01/26 09:23:06;;;;;;;2.55;1.83;;;;;;;;;;5071583;28;20031;-43
2023/01/26 09:25:35;;;;;;;4.50;2.22;;;;;;;;;;5070981;28;20025;-43
2023/01/26 09:28:01;;;;;;;4.85;2.13;;;;;;;;;;5080875;28;20350;-45
2023/01/26 09:30:27;;;;;;;3.72;2.20;;;;;;;;;;5069541;28;20028;-44
2023/01/26 09:32:57;;;;;;;3.25;2.10;;;;;;;;;;5070533;28;20028;-44
2023/01/26 09:35:23;;;;;;;2.97;1.95;;;;;;;;;;5070069;28;20024;-44
2023/01/26 09:37:49;;;;;;;3.30;2.20;;;;;;;;;;5070260;28;20032;-43
2023/01/26 09:40:17;;;;;;;3.42;1.73;;;;;;;;;;5070370;28;20107;-47
2023/01/26 09:42:49;;;;;;;2.55;1.80;;;;;;;;;;5069102;28;20094;-44
2023/01/26 09:45:21;;;;;;;2.90;1.83;;;;;;;;;;5070572;28;20020;-43
2023/01/26 09:47:50;;;;;;;2.90;2.00;;;;;;;;;;5062491;28;20051;-43
2023/01/26 09:50:26;;;;;;;6.70;2.10;;;;;;;;;;5066598;28;20055;-44
2023/01/26 09:52:58;;;;;;;2.80;1.77;;;;;;;;;;5070485;28;20037;-44
2023/01/26 09:55:24;;;;;;;2.92;1.83;;;;;;;;;;5071202;28;20064;-46
2023/01/26 09:57:50;;;;;;;2.92;1.95;;;;;;;;;;5052548;28;20476;-43
2023/01/26 10:00:27;;;;;;;4.22;1.90;;;;;;;;;;5070483;28;20028;-48
2023/01/26 10:03:12;;;;;;;2.53;1.60;;;;;;;;;;5068102;28;20027;-43
2023/01/26 10:05:37;;;;;;;5.10;3.28;;;;;;;;;;5069511;28;20497;-45
2023/01/26 10:08:08;;;;;;;3.58;1.80;;;;;;;;;;5072992;28;20039;-44
2023/01/26 10:10:35;;;;;;;2.45;1.67;;;;;;;;;;5069374;28;20036;-43
2023/01/26 10:13:02;;;;;;;3.22;2.00;;;;;;;;;;5071206;28;20032;-44
2023/01/26 10:15:30;;;;;;;2.72;2.05;;;;;;;;;;5070476;28;20021;-43
2023/01/26 10:17:57;;;;;;;2.28;1.55;;;;;;;;;;5070220;28;20027;-43
2023/01/26 10:20:26;;;;;;;2.55;1.80;;;;;;;;;;5059816;28;20063;-44
2023/01/26 10:22:54;;;;;;;3.80;1.80;;;;;;;;;;5058412;28;20016;-44
2023/01/26 10:25:32;;;;;;;2.95;2.13;;;;;;;;;;5068167;28;20435;-43
2023/01/26 10:27:59;;;;;;;2.40;1.95;;;;;;;;;;5070810;28;20036;-43
2023/01/26 10:30:25;;;;;;;2.38;1.73;;;;;;;;;;5069990;28;20029;-43
2023/01/26 10:32:51;;;;;;;3.20;1.60;;;;;;;;;;5069676;28;20025;-45
2023/01/26 10:35:19;;;;;;;3.92;2.00;;;;;;;;;;5070394;28;20033;-43
2023/01/26 10:37:45;;;;;;;2.90;1.77;;;;;;;;;;5059454;28;20036;-43
2023/01/26 10:40:12;;;;;;;3.28;1.80;;;;;;;;;;5067691;28;20021;-43
2023/01/26 10:42:39;;;;;;;3.88;2.00;;;;;;;;;;5075561;28;20034;-43
2023/01/26 10:45:25;;;;;;;3.15;1.83;;;;;;;;;;5070243;28;20063;-43
2023/01/26 10:48:10;;;;;;;2.53;1.95;;;;;;;;;;5060997;28;20527;-43
2023/01/26 10:50:36;;;;;;;2.92;1.77;;;;;;;;;;5060338;28;20033;-43
2023/01/26 10:53:03;;;;;;;2.58;1.85;;;;;;;;;;5058218;28;21325;-43
2023/01/26 10:55:30;;;;;;;3.00;2.08;;;;;;;;;;5059799;28;20020;-43
2023/01/26 10:57:56;;;;;;;2.28;1.65;;;;;;;;;;5066664;28;20021;-43
2023/01/26 11:00:23;;;;;;;2.08;1.50;;;;;;;;;;5070011;28;20038;-44
2023/01/26 11:02:50;;;;;;;3.55;1.42;;;;;;;;;;5069671;28;20040;-46
2023/01/26 11:05:26;;;;;;;2.20;1.23;;;;;;;;;;5077813;28;20102;-43
2023/01/26 11:07:57;;;;;;;2.63;1.92;;;;;;;;;;5065632;28;20633;-43
2023/01/26 11:10:34;;;;;;;4.68;1.67;;;;;;;;;;5060306;28;20036;-43
2023/01/26 11:13:20;;;;;;;2.58;1.70;;;;;;;;;;5070130;28;20037;-43
2023/01/26 11:15:51;;;;;;;2.83;1.60;;;;;;;;;;5066339;28;20052;-44
2023/01/26 11:18:20;;;;;;;2.13;1.50;;;;;;;;;;5070786;28;20021;-44
2023/01/26 11:20:55;;;;;;;2.20;1.40;;;;;;;;;;5071899;28;20107;-43
2023/01/26 11:23:43;;;;;;;3.50;1.70;;;;;;;;;;5073782;28;20035;-43
2023/01/26 11:26:14;;;;;;;5.22;1.60;;;;;;;;;;5073864;28;20028;-43
2023/01/26 11:28:56;;;;;;;3.03;1.88;;;;;;;;;;5064768;28;20386;-43
2023/01/26 11:31:22;;;;;;;3.10;1.93;;;;;;;;;;5073172;28;20033;-44
2023/01/26 11:34:06;;;;;;;5.68;2.50;;;;;;;;;;5071892;28;20082;-47
2023/01/26 11:36:48;;;;;;;13.30;3.30;;;;;;;;;;5073406;28;20021;-41
2023/01/26 11:39:14;;;;;;;10.27;3.73;;;;;;;;;;5073359;28;20024;-42
2023/01/26 11:41:45;;;;;;;11.63;4.13;;;;;;;;;;5072689;28;20032;-42
2023/01/26 11:44:29;;;;;;;16.90;6.15;;;;;;;;;;5073466;28;20017;-44
2023/01/26 11:47:14;;;;;;;10.23;4.47;;;;;;;;;;5069502;28;20124;-44
2023/01/26 11:49:48;;;;;;;13.57;4.10;;;;;;;;;;5072363;28;20374;-41
2023/01/26 11:52:16;;;;;;;12.35;4.85;;;;;;;;;;5065884;28;20377;-43
2023/01/26 11:54:55;;;;;;;10.50;4.10;;;;;;;;;;5053123;28;20029;-43
2023/01/26 11:57:26;;;;;;;12.32;4.82;;;;;;;;;;5054243;28;20382;-43
2023/01/26 12:00:04;;;;;;;10.27;3.63;;;;;;;;;;5052135;28;20029;-42
2023/01/26 12:02:35;;;;;;;9.10;3.63;;;;;;;;;;5056813;28;20051;-45
2023/01/26 12:05:15;;;;;;;8.27;3.35;;;;;;;;;;5049195;28;20067;-44
2023/01/26 12:07:56;;;;;;;9.80;3.95;;;;;;;;;;5048770;28;20478;-44
2023/01/26 12:10:29;;;;;;;10.10;4.17;;;;;;;;;;5049939;28;20031;-42
2023/01/26 12:13:00;;;;;;;8.40;3.92;;;;;;;;;;5052088;28;20512;-44
2023/01/26 12:15:33;;;;;;;6.80;3.60;;;;;;;;;;5052701;28;20029;-42
2023/01/26 12:18:05;;;;;;;10.27;3.92;;;;;;;;;;5052963;28;20032;-42
2023/01/26 12:20:39;;;;;;;7.95;3.53;;;;;;;;;;5050968;28;20029;-43
2023/01/26 12:23:10;;;;;;;12.43;4.25;;;;;;;;;;5048388;28;20584;-43
2023/01/26 12:25:37;;;;;;;7.75;3.78;;;;;;;;;;5051891;28;20035;-42
2023/01/26 12:28:21;;;;;;;7.38;3.63;;;;;;;;;;5053194;28;20028;-44
2023/01/26 12:31:08;;;;;;;11.43;3.45;;;;;;;;;;5050769;28;20110;-43
2023/01/26 12:33:34;;;;;;;7.60;3.42;;;;;;;;;;5051401;28;20048;-43
2023/01/26 12:36:03;;;;;;;8.63;3.90;;;;;;;;;;5048557;28;20022;-44
2023/01/26 12:38:45;;;;;;;9.90;4.03;;;;;;;;;;5052087;28;20154;-42
2023/01/26 12:41:11;;;;;;;6.67;3.47;;;;;;;;;;5052444;28;20482;-46
2023/01/26 12:43:49;;;;;;;6.90;3.35;;;;;;;;;;5051642;28;20025;-43
2023/01/26 12:46:15;;;;;;;8.85;3.13;;;;;;;;;;5052632;28;20028;-43
2023/01/26 12:48:45;;;;;;;7.03;3.38;;;;;;;;;;5051075;28;20013;-43
2023/01/26 12:51:15;;;;;;;10.15;4.10;;;;;;;;;;5051733;28;20082;-42
2023/01/26 12:53:53;;;;;;;10.05;3.38;;;;;;;;;;5050157;28;20064;-43
2023/01/26 12:56:31;;;;;;;10.05;3.53;;;;;;;;;;5052506;28;20119;-44
2023/01/26 12:58:59;;;;;;;6.50;3.15;;;;;;;;;;5043635;28;20257;-42
2023/01/26 13:01:29;;;;;;;6.97;3.20;;;;;;;;;;5046227;28;20095;-44
2023/01/26 13:03:56;;;;;;;7.57;3.42;;;;;;;;;;5042642;28;20028;-45
2023/01/26 13:06:24;;;;;;;5.70;3.17;;;;;;;;;;5072066;28;20016;-43
2023/01/26 13:08:52;;;;;;;8.43;3.13;;;;;;;;;;5070370;28;20020;-44
2023/01/26 13:11:37;;;;;;;7.28;3.38;;;;;;;;;;5067172;28;20039;-43
2023/01/26 13:14:23;;;;;;;8.15;3.80;;;;;;;;;;5071064;28;20493;-46
2023/01/26 13:16:49;;;;;;;6.47;2.97;;;;;;;;;;5065225;28;20031;-43
2023/01/26 13:19:35;;;;;;;5.78;3.15;;;;;;;;;;5070627;28;20469;-43
2023/01/26 13:22:01;;;;;;;5.82;2.72;;;;;;;;;;5070527;28;20032;-42
2023/01/26 13:24:27;;;;;;;7.05;3.97;;;;;;;;;;5070992;28;20024;-42
2023/01/26 13:26:53;;;;;;;10.85;3.72;;;;;;;;;;5067399;28;20032;-42
2023/01/26 13:29:22;;;;;;;8.23;3.72;;;;;;;;;;5061116;28;20020;-42
2023/01/26 13:31:48;;;;;;;6.35;3.00;;;;;;;;;;5070674;28;20086;-45
2023/01/26 13:34:15;;;;;;;5.13;2.83;;;;;;;;;;5070767;28;20028;-42
2023/01/26 13:36:46;;;;;;;6.53;3.40;;;;;;;;;;5080286;28;20028;-43
2023/01/26 13:39:16;;;;;;;5.68;3.20;;;;;;;;;;5070779;28;20020;-42
2023/01/26 13:41:46;;;;;;;6.70;2.88;;;;;;;;;;5070839;28;20063;-43
2023/01/26 13:44:15;;;;;;;5.03;2.83;;;;;;;;;;5066158;28;20029;-42
2023/01/26 13:46:44;;;;;;;6.03;3.15;;;;;;;;;;5070565;28;20413;-42
2023/01/26 13:49:29;;;;;;;5.35;3.20;;;;;;;;;;5077782;28;20013;-42
2023/01/26 13:51:55;;;;;;;4.85;3.22;;;;;;;;;;5067546;28;20036;-43
2023/01/26 13:54:22;;;;;;;6.85;3.65;;;;;;;;;;5075674;28;20495;-44
2023/01/26 13:57:02;;;;;;;4.70;3.13;;;;;;;;;;5070793;28;20351;-42
2023/01/26 13:59:28;;;;;;;6.10;3.00;;;;;;;;;;5069432;28;20367;-42
2023/01/26 14:01:54;;;;;;;5.15;2.83;;;;;;;;;;5060155;28;20020;-43
2023/01/26 14:04:31;;;;;;;6.90;4.00;;;;;;;;;;5064403;28;20090;-42
2023/01/26 14:07:03;;;;;;;5.70;3.67;;;;;;;;;;5058394;28;20025;-42
2023/01/26 14:09:33;;;;;;;5.20;2.70;;;;;;;;;;5065254;28;20099;-42
2023/01/26 14:12:00;;;;;;;4.07;2.92;;;;;;;;;;5070924;28;20465;-43
2023/01/26 14:14:28;;;;;;;6.18;3.35;;;;;;;;;;5077746;28;20028;-43
2023/01/26 14:16:57;;;;;;;6.85;3.10;;;;;;;;;;5072268;28;20013;-43
2023/01/26 14:19:23;;;;;;;5.90;3.22;;;;;;;;;;5066753;28;20024;-42
2023/01/26 14:21:56;;;;;;;4.63;2.75;;;;;;;;;;5068660;28;20037;-44
2023/01/26 14:24:32;;;;;;;5.57;3.30;;;;;;;;;;5070579;28;20024;-42
2023/01/26 14:26:58;;;;;;;4.82;2.97;;;;;;;;;;5072053;28;20542;-42
2023/01/26 14:29:26;;;;;;;4.60;3.10;;;;;;;;;;5077516;28;20028;-44
2023/01/26 14:31:53;;;;;;;4.20;2.60;;;;;;;;;;5070348;28;20549;-42
2023/01/26 14:34:24;;;;;;;5.07;3.00;;;;;;;;;;5082153;28;20071;-43
2023/01/26 14:37:09;;;;;;;7.53;3.20;;;;;;;;;;5057381;28;20032;-42
2023/01/26 14:39:35;;;;;;;6.57;3.33;;;;;;;;;;5069952;28;20408;-42
2023/01/26 14:42:01;;;;;;;4.78;2.97;;;;;;;;;;5071019;28;20028;-44
2023/01/26 14:44:27;;;;;;;7.40;3.33;;;;;;;;;;5070312;28;20028;-43
2023/01/26 14:46:56;;;;;;;6.10;3.28;;;;;;;;;;5067895;28;20085;-44
2023/01/26 14:49:42;;;;;;;4.45;2.72;;;;;;;;;;5049567;28;20051;-42
2023/01/26 14:52:37;;;;;;;7.40;3.08;;;;;;;;;;5066161;28;20041;-43
2023/01/26 14:55:06;;;;;;;4.80;2.88;;;;;;;;;;5069858;28;20054;-44
2023/01/26 14:57:32;;;;;;;4.82;2.90;;;;;;;;;;5068907;28;20025;-42
2023/01/26 14:59:59;;;;;;;4.47;2.92;;;;;;;;;;5055628;28;20032;-44
2023/01/26 15:02:25;;;;;;;4.95;3.08;;;;;;;;;;5057601;28;20024;-44
2023/01/26 15:05:24;;;;;;;5.80;3.03;;;;;;;;;;5068305;28;20053;-43
2023/01/26 15:07:50;;;;;;;5.28;2.60;;;;;;;;;;5015658;28;20139;-45
2023/01/26 15:10:31;;;;;;;5.10;2.88;;;;;;;;;;5067283;28;20111;-43
2023/01/26 15:12:58;;;;;;;6.32;3.30;;;;;;;;;;5060409;28;20039;-45
2023/01/26 15:15:27;;;;;;;5.25;2.60;;;;;;;;;;5061865;28;20099;-42
2023/01/26 15:18:04;;;;;;;5.70;2.72;;;;;;;;;;5073294;28;20055;-42
2023/01/26 15:20:30;;;;;;;5.03;2.60;;;;;;;;;;5065358;28;20033;-42
2023/01/26 15:22:56;;;;;;;3.85;2.72;;;;;;;;;;5073177;28;20032;-42
2023/01/26 15:25:25;;;;;;;4.45;3.17;;;;;;;;;;5073676;28;20059;-43
2023/01/26 15:27:55;;;;;;;4.63;2.90;;;;;;;;;;5071762;28;20032;-42
2023/01/26 15:30:25;;;;;;;4.43;2.72;;;;;;;;;;5072981;28;20373;-42
2023/01/26 15:32:51;;;;;;;4.60;2.55;;;;;;;;;;5074284;28;20044;-42
2023/01/26 15:35:18;;;;;;;4.40;2.58;;;;;;;;;;5073368;28;20457;-42
2023/01/26 15:37:44;;;;;;;5.32;3.10;;;;;;;;;;5073096;28;20020;-42
2023/01/26 15:40:11;;;;;;;3.92;3.10;;;;;;;;;;5076592;28;20039;-42
2023/01/26 15:42:36;;;;;;;5.13;3.10;;;;;;;;;;5069372;28;20477;-44